sensor_id;sensor_type;location;lat;lon;timestamp;temperature;humidity
1888;DHT22;944;51.574;6.980;2023-02-03T00:02:51;7.90;99.90
1888;DHT22;944;51.574;6.980;2023-02-03T00:05:20;7.90;99.90
1888;DHT22;944;51.574;6.980;2023-02-03T00:35:32;8.00;99.90
1888;DHT22;944;51.574;6.980;2023-02-03T01:07:15;8.20;99.90
1888;DHT22;944;51.574;6.980;2023-02-03T01:09:44;8.10;99.90
1888;DHT22;944;51.574;6.980;2023-02-03T01:12:13;8.20;99.90
1888;DHT22;944;51.574;6.980;2023-02-03T01:14:42;8.20;99.90
1888;DHT22;944;51.574;6.980;2023-02-03T01:17:13;8.10;99.90
1888;DHT22;944;51.574;6.980;2023-02-03T01:19:46;8.10;99.90
1888;DHT22;944;51.574;6.980;2023-02-03T01:35:12;8.20;99.90
1888;DHT22;944;51.574;6.980;2023-02-03T01:43:31;8.30;99.90
1888;DHT22;944;51.574;6.980;2023-02-03T02:17:07;8.50;99.90
1888;DHT22;944;51.574;6.980;2023-02-03T02:25:07;8.30;99.90
1888;DHT22;944;51.574;6.980;2023-02-03T02:28:33;8.30;99.90
1888;DHT22;944;51.574;6.980;2023-02-03T02:32:04;8.40;99.90
1888;DHT22;944;51.574;6.980;2023-02-03T02:35:37;8.30;99.90
1888;DHT22;944;51.574;6.980;2023-02-03T02:38:15;8.40;99.90
1888;DHT22;944;51.574;6.980;2023-02-03T02:40:55;8.50;99.90
1888;DHT22;944;51.574;6.980;2023-02-03T02:43:32;8.30;99.90
1888;DHT22;944;51.574;6.980;2023-02-03T02:46:09;8.30;99.90
1888;DHT22;944;51.574;6.980;2023-02-03T02:48:43;8.30;99.90
1888;DHT22;944;51.574;6.980;2023-02-03T02:51:14;8.30;99.90
1888;DHT22;944;51.574;6.980;2023-02-03T02:54:27;8.30;99.90
1888;DHT22;944;51.574;6.980;2023-02-03T02:57:08;8.30;99.90
1888;DHT22;944;51.574;6.980;2023-02-03T03:00:20;8.30;99.90
1888;DHT22;944;51.574;6.980;2023-02-03T03:10:07;8.30;99.90
1888;DHT22;944;51.574;6.980;2023-02-03T03:13:26;8.30;99.90
1888;DHT22;944;51.574;6.980;2023-02-03T03:19:51;8.30;99.90
1888;DHT22;944;51.574;6.980;2023-02-03T03:23:23;8.30;99.90
1888;DHT22;944;51.574;6.980;2023-02-03T03:26:08;8.30;99.90
1888;DHT22;944;51.574;6.980;2023-02-03T03:32:52;8.30;99.90
1888;DHT22;944;51.574;6.980;2023-02-03T03:36:19;8.30;99.90
1888;DHT22;944;51.574;6.980;2023-02-03T03:39:03;8.30;99.90
1888;DHT22;944;51.574;6.980;2023-02-03T03:42:11;8.30;99.90
1888;DHT22;944;51.574;6.980;2023-02-03T03:45:30;8.30;99.90
1888;DHT22;944;51.574;6.980;2023-02-03T03:48:37;8.30;99.90
1888;DHT22;944;51.574;6.980;2023-02-03T03:52:08;8.30;99.90
1888;DHT22;944;51.574;6.980;2023-02-03T03:55:44;8.40;99.90
1888;DHT22;944;51.574;6.980;2023-02-03T04:02:01;8.40;99.90
1888;DHT22;944;51.574;6.980;2023-02-03T04:04:51;8.40;99.90
1888;DHT22;944;51.574;6.980;2023-02-03T04:08:39;8.40;99.90
1888;DHT22;944;51.574;6.980;2023-02-03T04:11:27;8.20;99.90
1888;DHT22;944;51.574;6.980;2023-02-03T04:14:45;8.40;99.90
1888;DHT22;944;51.574;6.980;2023-02-03T04:17:53;8.50;99.90
1888;DHT22;944;51.574;6.980;2023-02-03T04:21:23;8.40;99.90
1888;DHT22;944;51.574;6.980;2023-02-03T04:34:24;8.30;99.90
1888;DHT22;944;51.574;6.980;2023-02-03T04:40:50;8.40;99.90
1888;DHT22;944;51.574;6.980;2023-02-03T05:30:10;8.40;99.90
1888;DHT22;944;51.574;6.980;2023-02-03T05:32:38;8.40;99.90
1888;DHT22;944;51.574;6.980;2023-02-03T05:35:10;8.30;99.90
1888;DHT22;944;51.574;6.980;2023-02-03T05:37:47;8.40;99.90
1888;DHT22;944;51.574;6.980;2023-02-03T05:47:37;8.40;99.90
1888;DHT22;944;51.574;6.980;2023-02-03T05:50:05;8.40;99.90
1888;DHT22;944;51.574;6.980;2023-02-03T05:52:33;8.40;99.90
1888;DHT22;944;51.574;6.980;2023-02-03T05:55:00;8.30;99.90
1888;DHT22;944;51.574;6.980;2023-02-03T05:57:27;8.50;99.90
1888;DHT22;944;51.574;6.980;2023-02-03T05:59:56;8.50;99.90
1888;DHT22;944;51.574;6.980;2023-02-03T06:02:23;8.50;99.90
1888;DHT22;944;51.574;6.980;2023-02-03T06:04:52;8.40;99.90
1888;DHT22;944;51.574;6.980;2023-02-03T06:07:19;8.50;99.90
1888;DHT22;944;51.574;6.980;2023-02-03T06:09:46;8.50;99.90
1888;DHT22;944;51.574;6.980;2023-02-03T06:12:14;8.70;99.90
1888;DHT22;944;51.574;6.980;2023-02-03T06:14:41;8.40;99.90
1888;DHT22;944;51.574;6.980;2023-02-03T06:17:08;8.50;99.90
1888;DHT22;944;51.574;6.980;2023-02-03T06:19:38;8.50;99.90
1888;DHT22;944;51.574;6.980;2023-02-03T06:22:07;8.50;99.90
1888;DHT22;944;51.574;6.980;2023-02-03T06:24:34;8.50;99.90
1888;DHT22;944;51.574;6.980;2023-02-03T06:27:01;8.50;99.90
1888;DHT22;944;51.574;6.980;2023-02-03T06:29:28;8.70;99.90
1888;DHT22;944;51.574;6.980;2023-02-03T06:31:55;8.60;99.90
1888;DHT22;944;51.574;6.980;2023-02-03T06:34:22;8.60;99.90
1888;DHT22;944;51.574;6.980;2023-02-03T06:36:49;8.60;99.90
1888;DHT22;944;51.574;6.980;2023-02-03T06:39:18;8.50;99.90
1888;DHT22;944;51.574;6.980;2023-02-03T06:41:45;8.50;99.90
1888;DHT22;944;51.574;6.980;2023-02-03T06:44:12;8.50;99.90
1888;DHT22;944;51.574;6.980;2023-02-03T06:46:39;8.50;99.90
1888;DHT22;944;51.574;6.980;2023-02-03T06:49:06;8.50;99.90
1888;DHT22;944;51.574;6.980;2023-02-03T06:51:33;8.50;99.90
1888;DHT22;944;51.574;6.980;2023-02-03T06:54:01;8.50;99.90
1888;DHT22;944;51.574;6.980;2023-02-03T06:56:31;8.50;99.90
1888;DHT22;944;51.574;6.980;2023-02-03T06:59:00;8.50;99.90
1888;DHT22;944;51.574;6.980;2023-02-03T07:01:27;8.50;99.90
1888;DHT22;944;51.574;6.980;2023-02-03T07:04:22;8.50;99.90
1888;DHT22;944;51.574;6.980;2023-02-03T07:06:52;8.60;99.90
1888;DHT22;944;51.574;6.980;2023-02-03T07:09:19;8.60;99.90
1888;DHT22;944;51.574;6.980;2023-02-03T07:11:48;8.50;99.90
1888;DHT22;944;51.574;6.980;2023-02-03T07:14:15;8.60;99.90
1888;DHT22;944;51.574;6.980;2023-02-03T07:16:44;8.60;99.90
1888;DHT22;944;51.574;6.980;2023-02-03T07:19:11;8.60;99.90
1888;DHT22;944;51.574;6.980;2023-02-03T07:21:38;8.60;99.90
1888;DHT22;944;51.574;6.980;2023-02-03T07:24:05;8.70;99.90
1888;DHT22;944;51.574;6.980;2023-02-03T07:26:32;8.60;99.90
1888;DHT22;944;51.574;6.980;2023-02-03T07:29:01;8.60;99.90
1888;DHT22;944;51.574;6.980;2023-02-03T07:31:28;8.60;99.90
1888;DHT22;944;51.574;6.980;2023-02-03T07:33:58;8.60;99.90
1888;DHT22;944;51.574;6.980;2023-02-03T07:36:28;8.60;99.90
1888;DHT22;944;51.574;6.980;2023-02-03T07:38:55;8.60;99.90
1888;DHT22;944;51.574;6.980;2023-02-03T07:41:22;8.60;99.90
1888;DHT22;944;51.574;6.980;2023-02-03T07:43:49;8.70;99.90
1888;DHT22;944;51.574;6.980;2023-02-03T07:46:18;8.70;99.90
1888;DHT22;944;51.574;6.980;2023-02-03T07:48:45;8.60;99.90
1888;DHT22;944;51.574;6.980;2023-02-03T07:51:12;8.70;99.90
1888;DHT22;944;51.574;6.980;2023-02-03T07:53:39;8.70;99.90
1888;DHT22;944;51.574;6.980;2023-02-03T07:56:06;8.70;99.90
1888;DHT22;944;51.574;6.980;2023-02-03T07:58:33;8.70;99.90
1888;DHT22;944;51.574;6.980;2023-02-03T08:01:00;8.70;99.90
1888;DHT22;944;51.574;6.980;2023-02-03T08:03:28;8.80;99.90
1888;DHT22;944;51.574;6.980;2023-02-03T08:05:55;8.80;99.90
1888;DHT22;944;51.574;6.980;2023-02-03T08:08:22;8.80;99.90
1888;DHT22;944;51.574;6.980;2023-02-03T08:10:49;8.80;99.90
1888;DHT22;944;51.574;6.980;2023-02-03T08:13:16;8.70;99.90
1888;DHT22;944;51.574;6.980;2023-02-03T08:15:44;8.90;99.90
1888;DHT22;944;51.574;6.980;2023-02-03T08:18:11;9.00;99.90
1888;DHT22;944;51.574;6.980;2023-02-03T08:20:39;8.90;99.90
1888;DHT22;944;51.574;6.980;2023-02-03T08:23:06;8.90;99.90
1888;DHT22;944;51.574;6.980;2023-02-03T08:25:33;8.90;99.90
1888;DHT22;944;51.574;6.980;2023-02-03T08:28:00;9.00;99.90
1888;DHT22;944;51.574;6.980;2023-02-03T08:30:29;8.90;99.90
1888;DHT22;944;51.574;6.980;2023-02-03T08:32:56;9.00;99.90
1888;DHT22;944;51.574;6.980;2023-02-03T08:35:24;9.00;99.90
1888;DHT22;944;51.574;6.980;2023-02-03T08:37:53;8.90;99.90
1888;DHT22;944;51.574;6.980;2023-02-03T08:40:20;8.90;99.90
1888;DHT22;944;51.574;6.980;2023-02-03T08:42:47;9.00;99.90
1888;DHT22;944;51.574;6.980;2023-02-03T08:45:14;9.00;99.90
1888;DHT22;944;51.574;6.980;2023-02-03T08:47:42;9.00;99.90
1888;DHT22;944;51.574;6.980;2023-02-03T08:50:09;9.10;99.90
1888;DHT22;944;51.574;6.980;2023-02-03T08:52:38;9.10;99.90
1888;DHT22;944;51.574;6.980;2023-02-03T08:55:07;9.20;99.90
1888;DHT22;944;51.574;6.980;2023-02-03T08:57:47;9.10;99.90
1888;DHT22;944;51.574;6.980;2023-02-03T09:00:18;9.10;99.90
1888;DHT22;944;51.574;6.980;2023-02-03T09:02:46;9.10;99.90
1888;DHT22;944;51.574;6.980;2023-02-03T09:05:13;9.20;99.90
1888;DHT22;944;51.574;6.980;2023-02-03T09:07:43;9.20;99.90
1888;DHT22;944;51.574;6.980;2023-02-03T09:10:13;9.20;99.90
1888;DHT22;944;51.574;6.980;2023-02-03T09:12:40;9.20;99.90
1888;DHT22;944;51.574;6.980;2023-02-03T09:15:08;9.20;99.90
1888;DHT22;944;51.574;6.980;2023-02-03T09:17:35;9.30;99.90
1888;DHT22;944;51.574;6.980;2023-02-03T09:20:02;9.30;99.90
1888;DHT22;944;51.574;6.980;2023-02-03T09:22:30;9.30;99.90
1888;DHT22;944;51.574;6.980;2023-02-03T09:24:57;9.30;99.90
1888;DHT22;944;51.574;6.980;2023-02-03T09:27:25;9.30;99.90
1888;DHT22;944;51.574;6.980;2023-02-03T09:29:52;9.40;99.90
1888;DHT22;944;51.574;6.980;2023-02-03T09:32:19;9.30;99.90
1888;DHT22;944;51.574;6.980;2023-02-03T09:34:48;9.30;99.90
1888;DHT22;944;51.574;6.980;2023-02-03T09:37:15;9.40;99.90
1888;DHT22;944;51.574;6.980;2023-02-03T09:39:44;9.30;99.90
1888;DHT22;944;51.574;6.980;2023-02-03T09:42:27;9.30;99.90
1888;DHT22;944;51.574;6.980;2023-02-03T09:45:12;9.30;99.90
1888;DHT22;944;51.574;6.980;2023-02-03T09:47:50;9.20;99.90
1888;DHT22;944;51.574;6.980;2023-02-03T09:50:21;9.30;99.90
1888;DHT22;944;51.574;6.980;2023-02-03T09:52:52;9.40;99.90
1888;DHT22;944;51.574;6.980;2023-02-03T09:55:26;9.30;99.90
1888;DHT22;944;51.574;6.980;2023-02-03T09:58:12;9.30;99.90
1888;DHT22;944;51.574;6.980;2023-02-03T10:00:41;9.40;99.90
1888;DHT22;944;51.574;6.980;2023-02-03T10:03:20;9.40;99.90
1888;DHT22;944;51.574;6.980;2023-02-03T10:09:00;9.40;99.90
1888;DHT22;944;51.574;6.980;2023-02-03T10:11:48;9.50;99.90
1888;DHT22;944;51.574;6.980;2023-02-03T10:14:46;9.50;99.90
1888;DHT22;944;51.574;6.980;2023-02-03T10:17:28;9.50;99.90
1888;DHT22;944;51.574;6.980;2023-02-03T10:20:07;9.50;99.90
1888;DHT22;944;51.574;6.980;2023-02-03T10:22:42;9.50;99.90
1888;DHT22;944;51.574;6.980;2023-02-03T10:25:18;9.50;99.90
1888;DHT22;944;51.574;6.980;2023-02-03T10:27:50;9.60;99.90
1888;DHT22;944;51.574;6.980;2023-02-03T10:30:22;9.50;99.90
1888;DHT22;944;51.574;6.980;2023-02-03T10:32:52;9.50;99.90
1888;DHT22;944;51.574;6.980;2023-02-03T10:35:21;9.50;99.90
1888;DHT22;944;51.574;6.980;2023-02-03T10:37:55;9.50;99.90
1888;DHT22;944;51.574;6.980;2023-02-03T10:40:25;9.40;99.90
1888;DHT22;944;51.574;6.980;2023-02-03T10:42:54;9.40;99.90
1888;DHT22;944;51.574;6.980;2023-02-03T10:45:40;9.40;99.90
1888;DHT22;944;51.574;6.980;2023-02-03T10:48:12;9.40;99.90
1888;DHT22;944;51.574;6.980;2023-02-03T10:50:53;9.50;99.90
1888;DHT22;944;51.574;6.980;2023-02-03T10:53:34;9.50;99.90
1888;DHT22;944;51.574;6.980;2023-02-03T10:56:04;9.60;99.90
1888;DHT22;944;51.574;6.980;2023-02-03T10:58:37;9.40;99.90
1888;DHT22;944;51.574;6.980;2023-02-03T11:01:09;9.50;99.90
1888;DHT22;944;51.574;6.980;2023-02-03T11:03:37;9.50;99.90
1888;DHT22;944;51.574;6.980;2023-02-03T11:06:10;9.50;99.90
1888;DHT22;944;51.574;6.980;2023-02-03T11:08:39;9.50;99.90
1888;DHT22;944;51.574;6.980;2023-02-03T11:11:08;9.50;99.90
1888;DHT22;944;51.574;6.980;2023-02-03T11:13:51;9.60;99.90
1888;DHT22;944;51.574;6.980;2023-02-03T11:16:26;9.60;99.90
1888;DHT22;944;51.574;6.980;2023-02-03T11:26:57;9.70;99.90
1888;DHT22;944;51.574;6.980;2023-02-03T11:29:37;9.60;99.90
1888;DHT22;944;51.574;6.980;2023-02-03T11:32:22;9.70;99.90
1888;DHT22;944;51.574;6.980;2023-02-03T11:34:59;9.70;99.90
1888;DHT22;944;51.574;6.980;2023-02-03T11:37:34;9.80;99.90
1888;DHT22;944;51.574;6.980;2023-02-03T11:40:25;9.70;99.90
1888;DHT22;944;51.574;6.980;2023-02-03T11:46:41;9.80;99.90
1888;DHT22;944;51.574;6.980;2023-02-03T11:53:04;9.80;99.90
1888;DHT22;944;51.574;6.980;2023-02-03T11:55:47;9.80;99.90
1888;DHT22;944;51.574;6.980;2023-02-03T11:59:00;9.70;99.90
1888;DHT22;944;51.574;6.980;2023-02-03T12:01:51;9.80;99.90
1888;DHT22;944;51.574;6.980;2023-02-03T12:10:03;9.70;99.90
1888;DHT22;944;51.574;6.980;2023-02-03T12:23:03;9.80;99.90
1888;DHT22;944;51.574;6.980;2023-02-03T12:25:59;9.70;99.90
1888;DHT22;944;51.574;6.980;2023-02-03T12:33:20;9.70;99.90
1888;DHT22;944;51.574;6.980;2023-02-03T12:37:02;9.80;99.90
1888;DHT22;944;51.574;6.980;2023-02-03T12:40:05;9.80;99.90
1888;DHT22;944;51.574;6.980;2023-02-03T12:43:59;9.80;99.90
1888;DHT22;944;51.574;6.980;2023-02-03T12:59:24;10.00;99.90
1888;DHT22;944;51.574;6.980;2023-02-03T13:02:31;10.10;99.90
1888;DHT22;944;51.574;6.980;2023-02-03T13:05:39;10.10;99.90
1888;DHT22;944;51.574;6.980;2023-02-03T13:08:37;10.10;99.90
1888;DHT22;944;51.574;6.980;2023-02-03T13:11:24;10.20;99.90
1888;DHT22;944;51.574;6.980;2023-02-03T13:14:14;10.10;99.90
1888;DHT22;944;51.574;6.980;2023-02-03T13:17:28;10.20;99.90
1888;DHT22;944;51.574;6.980;2023-02-03T13:20:19;10.00;99.90
1888;DHT22;944;51.574;6.980;2023-02-03T13:23:21;10.00;99.90
1888;DHT22;944;51.574;6.980;2023-02-03T13:26:11;10.10;99.90
1888;DHT22;944;51.574;6.980;2023-02-03T13:29:05;10.10;99.90
1888;DHT22;944;51.574;6.980;2023-02-03T13:31:48;10.20;99.90
1888;DHT22;944;51.574;6.980;2023-02-03T13:39:11;10.00;99.90
1888;DHT22;944;51.574;6.980;2023-02-03T13:41:47;10.00;99.90
1888;DHT22;944;51.574;6.980;2023-02-03T13:44:24;9.90;99.90
1888;DHT22;944;51.574;6.980;2023-02-03T13:50:35;9.70;99.90
1888;DHT22;944;51.574;6.980;2023-02-03T13:53:06;9.40;99.90
1888;DHT22;944;51.574;6.980;2023-02-03T13:55:50;9.10;99.90
1888;DHT22;944;51.574;6.980;2023-02-03T13:58:20;8.80;99.90
1888;DHT22;944;51.574;6.980;2023-02-03T14:01:03;8.60;99.90
1888;DHT22;944;51.574;6.980;2023-02-03T14:07:30;8.20;99.90
1888;DHT22;944;51.574;6.980;2023-02-03T14:10:14;8.00;99.90
1888;DHT22;944;51.574;6.980;2023-02-03T14:13:00;7.90;99.90
1888;DHT22;944;51.574;6.980;2023-02-03T14:15:31;7.80;99.90
1888;DHT22;944;51.574;6.980;2023-02-03T14:21:11;7.80;99.90
1888;DHT22;944;51.574;6.980;2023-02-03T14:23:46;7.80;99.90
1888;DHT22;944;51.574;6.980;2023-02-03T14:26:23;7.80;99.90
1888;DHT22;944;51.574;6.980;2023-02-03T14:28:57;7.90;99.90
1888;DHT22;944;51.574;6.980;2023-02-03T14:31:25;7.80;99.90
1888;DHT22;944;51.574;6.980;2023-02-03T14:33:56;7.80;99.90
1888;DHT22;944;51.574;6.980;2023-02-03T14:36:45;7.90;99.90
1888;DHT22;944;51.574;6.980;2023-02-03T14:39:40;7.90;99.90
1888;DHT22;944;51.574;6.980;2023-02-03T14:43:10;7.90;99.90
1888;DHT22;944;51.574;6.980;2023-02-03T14:46:12;7.90;99.90
1888;DHT22;944;51.574;6.980;2023-02-03T14:49:20;7.90;99.90
1888;DHT22;944;51.574;6.980;2023-02-03T14:55:13;8.10;99.90
1888;DHT22;944;51.574;6.980;2023-02-03T14:58:01;8.10;99.90
1888;DHT22;944;51.574;6.980;2023-02-03T15:00:36;8.00;99.90
1888;DHT22;944;51.574;6.980;2023-02-03T15:03:22;8.10;99.90
1888;DHT22;944;51.574;6.980;2023-02-03T15:12:26;8.20;99.90
1888;DHT22;944;51.574;6.980;2023-02-03T15:15:14;8.20;99.90
1888;DHT22;944;51.574;6.980;2023-02-03T15:17:52;8.30;99.90
1888;DHT22;944;51.574;6.980;2023-02-03T15:20:32;8.30;99.90
1888;DHT22;944;51.574;6.980;2023-02-03T15:23:20;8.20;99.90
1888;DHT22;944;51.574;6.980;2023-02-03T15:25:57;8.20;99.90
1888;DHT22;944;51.574;6.980;2023-02-03T15:28:33;8.20;99.90
1888;DHT22;944;51.574;6.980;2023-02-03T15:31:05;8.20;99.90
1888;DHT22;944;51.574;6.980;2023-02-03T15:33:35;8.20;99.90
1888;DHT22;944;51.574;6.980;2023-02-03T15:36:07;8.20;99.90
1888;DHT22;944;51.574;6.980;2023-02-03T15:38:40;8.20;99.90
1888;DHT22;944;51.574;6.980;2023-02-03T15:41:19;8.30;99.90
1888;DHT22;944;51.574;6.980;2023-02-03T15:43:49;8.30;99.90
1888;DHT22;944;51.574;6.980;2023-02-03T15:46:21;8.30;99.90
1888;DHT22;944;51.574;6.980;2023-02-03T15:48:55;8.30;99.90
1888;DHT22;944;51.574;6.980;2023-02-03T15:51:30;8.30;99.90
1888;DHT22;944;51.574;6.980;2023-02-03T15:54:02;8.30;99.90
1888;DHT22;944;51.574;6.980;2023-02-03T15:56:39;8.20;99.90
1888;DHT22;944;51.574;6.980;2023-02-03T15:59:41;8.10;99.90
1888;DHT22;944;51.574;6.980;2023-02-03T16:02:33;8.20;99.90
1888;DHT22;944;51.574;6.980;2023-02-03T16:05:03;8.30;99.90
1888;DHT22;944;51.574;6.980;2023-02-03T16:07:36;8.20;99.90
1888;DHT22;944;51.574;6.980;2023-02-03T16:10:03;8.30;99.90
1888;DHT22;944;51.574;6.980;2023-02-03T16:12:48;8.20;99.90
1888;DHT22;944;51.574;6.980;2023-02-03T16:15:46;8.40;99.90
1888;DHT22;944;51.574;6.980;2023-02-03T17:21:30;7.90;99.90
1888;DHT22;944;51.574;6.980;2023-02-03T17:24:05;7.90;99.90
1888;DHT22;944;51.574;6.980;2023-02-03T17:26:53;7.90;99.90
1888;DHT22;944;51.574;6.980;2023-02-03T17:29:28;7.90;99.90
1888;DHT22;944;51.574;6.980;2023-02-03T17:31:59;7.90;99.90
1888;DHT22;944;51.574;6.980;2023-02-03T17:34:32;7.90;99.90
1888;DHT22;944;51.574;6.980;2023-02-03T17:37:07;8.00;99.90
1888;DHT22;944;51.574;6.980;2023-02-03T17:39:42;8.00;99.90
1888;DHT22;944;51.574;6.980;2023-02-03T17:42:17;8.00;99.90
1888;DHT22;944;51.574;6.980;2023-02-03T17:44:49;8.00;99.90
1888;DHT22;944;51.574;6.980;2023-02-03T17:47:18;8.00;99.90
1888;DHT22;944;51.574;6.980;2023-02-03T17:49:46;8.10;99.90
1888;DHT22;944;51.574;6.980;2023-02-03T17:52:31;8.20;99.90
1888;DHT22;944;51.574;6.980;2023-02-03T17:55:14;8.10;99.90
1888;DHT22;944;51.574;6.980;2023-02-03T17:57:46;8.10;99.90
1888;DHT22;944;51.574;6.980;2023-02-03T18:00:24;8.10;99.90
1888;DHT22;944;51.574;6.980;2023-02-03T18:03:05;8.10;99.90
1888;DHT22;944;51.574;6.980;2023-02-03T18:05:49;8.10;99.90
1888;DHT22;944;51.574;6.980;2023-02-03T18:20:02;8.00;99.90
1888;DHT22;944;51.574;6.980;2023-02-03T18:24:29;7.90;99.90
1888;DHT22;944;51.574;6.980;2023-02-03T18:26:43;7.90;99.90
1888;DHT22;944;51.574;6.980;2023-02-03T18:29:28;7.90;99.90
1888;DHT22;944;51.574;6.980;2023-02-03T18:31:56;7.90;99.90
1888;DHT22;944;51.574;6.980;2023-02-03T18:34:23;8.00;99.90
1888;DHT22;944;51.574;6.980;2023-02-03T18:36:51;7.90;99.90
1888;DHT22;944;51.574;6.980;2023-02-03T18:39:21;7.80;99.90
1888;DHT22;944;51.574;6.980;2023-02-03T18:41:49;7.80;99.90
1888;DHT22;944;51.574;6.980;2023-02-03T18:44:16;7.80;99.90
1888;DHT22;944;51.574;6.980;2023-02-03T18:46:43;7.80;99.90
1888;DHT22;944;51.574;6.980;2023-02-03T18:49:11;7.70;99.90
1888;DHT22;944;51.574;6.980;2023-02-03T18:52:15;7.60;99.90
1888;DHT22;944;51.574;6.980;2023-02-03T18:54:43;7.60;99.90
1888;DHT22;944;51.574;6.980;2023-02-03T18:57:13;7.60;99.90
1888;DHT22;944;51.574;6.980;2023-02-03T18:59:49;7.50;99.90
1888;DHT22;944;51.574;6.980;2023-02-03T19:02:16;7.50;99.90
1888;DHT22;944;51.574;6.980;2023-02-03T19:04:45;7.50;99.90
1888;DHT22;944;51.574;6.980;2023-02-03T19:07:12;7.50;99.90
1888;DHT22;944;51.574;6.980;2023-02-03T19:09:39;7.50;99.90
1888;DHT22;944;51.574;6.980;2023-02-03T19:12:08;7.50;99.90
1888;DHT22;944;51.574;6.980;2023-02-03T19:14:58;7.50;99.90
1888;DHT22;944;51.574;6.980;2023-02-03T19:17:53;7.50;99.90
1888;DHT22;944;51.574;6.980;2023-02-03T19:20:36;7.50;99.90
1888;DHT22;944;51.574;6.980;2023-02-03T19:26:52;7.40;99.90
1888;DHT22;944;51.574;6.980;2023-02-03T19:29:36;7.40;99.90
1888;DHT22;944;51.574;6.980;2023-02-03T19:32:04;7.20;99.90
1888;DHT22;944;51.574;6.980;2023-02-03T19:34:32;7.40;99.90
1888;DHT22;944;51.574;6.980;2023-02-03T19:37:01;7.30;99.90
1888;DHT22;944;51.574;6.980;2023-02-03T19:39:28;7.50;99.90
1888;DHT22;944;51.574;6.980;2023-02-03T19:41:58;7.60;99.90
1888;DHT22;944;51.574;6.980;2023-02-03T19:44:29;7.40;99.90
1888;DHT22;944;51.574;6.980;2023-02-03T19:46:58;7.40;99.90
1888;DHT22;944;51.574;6.980;2023-02-03T19:49:29;7.30;99.90
1888;DHT22;944;51.574;6.980;2023-02-03T19:51:59;7.30;99.90
1888;DHT22;944;51.574;6.980;2023-02-03T19:54:27;7.40;99.90
1888;DHT22;944;51.574;6.980;2023-02-03T19:56:57;7.30;99.90
1888;DHT22;944;51.574;6.980;2023-02-03T19:59:27;7.30;99.90
1888;DHT22;944;51.574;6.980;2023-02-03T20:01:54;7.30;99.90
1888;DHT22;944;51.574;6.980;2023-02-03T20:04:21;7.30;99.90
1888;DHT22;944;51.574;6.980;2023-02-03T20:06:49;7.30;99.90
1888;DHT22;944;51.574;6.980;2023-02-03T20:09:18;7.30;99.90
1888;DHT22;944;51.574;6.980;2023-02-03T20:11:45;7.30;99.90
1888;DHT22;944;51.574;6.980;2023-02-03T20:14:12;7.30;99.90
1888;DHT22;944;51.574;6.980;2023-02-03T20:16:43;7.30;99.90
1888;DHT22;944;51.574;6.980;2023-02-03T20:19:30;7.30;99.90
1888;DHT22;944;51.574;6.980;2023-02-03T20:29:39;7.20;99.90
1888;DHT22;944;51.574;6.980;2023-02-03T20:32:06;7.20;99.90
1888;DHT22;944;51.574;6.980;2023-02-03T20:34:33;7.20;99.90
1888;DHT22;944;51.574;6.980;2023-02-03T20:37:01;7.20;99.90
1888;DHT22;944;51.574;6.980;2023-02-03T20:39:28;7.20;99.90
1888;DHT22;944;51.574;6.980;2023-02-03T20:41:55;7.20;99.90
1888;DHT22;944;51.574;6.980;2023-02-03T20:44:28;7.10;99.90
1888;DHT22;944;51.574;6.980;2023-02-03T20:47:07;7.10;99.90
1888;DHT22;944;51.574;6.980;2023-02-03T20:50:14;7.10;99.90
1888;DHT22;944;51.574;6.980;2023-02-03T20:52:48;7.10;99.90
1888;DHT22;944;51.574;6.980;2023-02-03T20:55:51;7.10;99.90
1888;DHT22;944;51.574;6.980;2023-02-03T20:58:38;7.10;99.90
1888;DHT22;944;51.574;6.980;2023-02-03T21:01:12;7.10;99.90
1888;DHT22;944;51.574;6.980;2023-02-03T21:03:40;7.20;99.90
1888;DHT22;944;51.574;6.980;2023-02-03T21:06:27;7.20;99.90
1888;DHT22;944;51.574;6.980;2023-02-03T21:08:56;7.30;99.90
1888;DHT22;944;51.574;6.980;2023-02-03T21:11:53;7.20;99.90
1888;DHT22;944;51.574;6.980;2023-02-03T21:14:46;7.20;99.90
1888;DHT22;944;51.574;6.980;2023-02-03T21:17:16;7.20;99.90
1888;DHT22;944;51.574;6.980;2023-02-03T21:19:45;7.20;99.90
1888;DHT22;944;51.574;6.980;2023-02-03T21:22:16;7.10;99.90
1888;DHT22;944;51.574;6.980;2023-02-03T21:24:50;7.10;99.90
1888;DHT22;944;51.574;6.980;2023-02-03T21:27:22;7.10;99.90
1888;DHT22;944;51.574;6.980;2023-02-03T21:29:54;7.20;99.90
1888;DHT22;944;51.574;6.980;2023-02-03T21:32:40;7.20;99.90
1888;DHT22;944;51.574;6.980;2023-02-03T21:35:27;7.20;99.90
1888;DHT22;944;51.574;6.980;2023-02-03T21:37:59;7.10;99.90
1888;DHT22;944;51.574;6.980;2023-02-03T21:40:29;7.10;99.90
1888;DHT22;944;51.574;6.980;2023-02-03T21:43:23;7.10;99.90
1888;DHT22;944;51.574;6.980;2023-02-03T21:46:03;7.10;99.90
1888;DHT22;944;51.574;6.980;2023-02-03T21:48:39;7.10;99.90
1888;DHT22;944;51.574;6.980;2023-02-03T21:51:19;7.30;99.90
1888;DHT22;944;51.574;6.980;2023-02-03T21:53:54;7.10;99.90
1888;DHT22;944;51.574;6.980;2023-02-03T21:56:43;7.20;99.90
1888;DHT22;944;51.574;6.980;2023-02-03T21:59:41;7.20;99.90
1888;DHT22;944;51.574;6.980;2023-02-03T22:02:35;7.20;99.90
1888;DHT22;944;51.574;6.980;2023-02-03T22:05:16;7.20;99.90
1888;DHT22;944;51.574;6.980;2023-02-03T22:07:43;7.20;99.90
1888;DHT22;944;51.574;6.980;2023-02-03T22:10:10;7.20;99.90
1888;DHT22;944;51.574;6.980;2023-02-03T22:12:38;7.20;99.90
1888;DHT22;944;51.574;6.980;2023-02-03T22:15:05;7.20;99.90
1888;DHT22;944;51.574;6.980;2023-02-03T22:17:55;7.20;99.90
1888;DHT22;944;51.574;6.980;2023-02-03T22:20:28;7.40;99.90
1888;DHT22;944;51.574;6.980;2023-02-03T22:23:00;7.20;99.90
1888;DHT22;944;51.574;6.980;2023-02-03T22:25:32;7.20;99.90
1888;DHT22;944;51.574;6.980;2023-02-03T22:28:14;7.20;99.90
1888;DHT22;944;51.574;6.980;2023-02-03T22:30:45;7.20;99.90
1888;DHT22;944;51.574;6.980;2023-02-03T22:33:21;7.20;99.90
1888;DHT22;944;51.574;6.980;2023-02-03T22:35:58;7.20;99.90
1888;DHT22;944;51.574;6.980;2023-02-03T22:42:17;7.10;99.90
1888;DHT22;944;51.574;6.980;2023-02-03T22:44:54;7.20;99.90
1888;DHT22;944;51.574;6.980;2023-02-03T22:51:11;7.10;99.90
1888;DHT22;944;51.574;6.980;2023-02-03T22:53:38;7.10;99.90
1888;DHT22;944;51.574;6.980;2023-02-03T22:56:05;7.10;99.90
1888;DHT22;944;51.574;6.980;2023-02-03T22:58:32;7.00;99.90
1888;DHT22;944;51.574;6.980;2023-02-03T23:15:16;7.20;99.90
1888;DHT22;944;51.574;6.980;2023-02-03T23:17:43;7.10;99.90
1888;DHT22;944;51.574;6.980;2023-02-03T23:20:12;7.20;99.90
1888;DHT22;944;51.574;6.980;2023-02-03T23:22:40;7.10;99.90
1888;DHT22;944;51.574;6.980;2023-02-03T23:25:08;7.10;99.90
1888;DHT22;944;51.574;6.980;2023-02-03T23:27:35;7.10;99.90
1888;DHT22;944;51.574;6.980;2023-02-03T23:44:22;7.00;99.90
1888;DHT22;944;51.574;6.980;2023-02-03T23:46:51;6.90;99.90
1888;DHT22;944;51.574;6.980;2023-02-03T23:49:18;6.90;99.90
1888;DHT22;944;51.574;6.980;2023-02-03T23:51:48;6.70;99.90
1888;DHT22;944;51.574;6.980;2023-02-03T23:54:15;6.70;99.90
1888;DHT22;944;51.574;6.980;2023-02-03T23:56:43;6.60;99.90
1888;DHT22;944;51.574;6.980;2023-02-03T23:59:11;6.60;99.90
